KFMM

Fort Morgan Municipal Airport

Fort Morgan, Colorado, USA
METAR KFMM 161455Z AUTO 03005KT 10SM CLR M03/M09 A2980 RMK AO2 T10321086
Observed Flight Rules
Dec-16 @ 14:55 UTC (5 minutes ago) Visual Flight Rules
Wind Visibility Clouds
30° at 5 knots 10 miles
  • Clear skies
Temperatures Readings
Current -3°C / 27°F
Dewpoint -9°C / 16°F
Humidity 64%
Altimeter 29.8" Hg
Pressure 1009 hPa
Elevation 1393
METAR KFMM 161455Z AUTO 03005KT 10SM CLR M03/M09 A2980 RMK AO2 T10321086
Observed Flight Rules
Dec-16 @ 14:55 UTC
(5 minutes ago)
VFR
Wind Visibility
30° at 5 knots 10 miles
Clouds
  • Clear skies
Temperature Dewpoint
-3°C / 27°F -9°C / 16°F
Humidity Altimeter Pressure
64% 29.8" Hg 1009 hPa